createdAt,value
2023-04-16T00:02:00.939Z,100742.19
2023-04-16T00:04:27.848Z,100748.84
2023-04-16T00:06:54.958Z,100749.56
2023-04-16T00:09:21.855Z,100749.72
2023-04-16T00:11:48.605Z,100750.81
2023-04-16T00:14:16.676Z,100752.66
2023-04-16T00:16:43.503Z,100741.72
2023-04-16T00:19:11.082Z,100738.25
2023-04-16T00:21:38.041Z,100738.38
2023-04-16T00:24:04.854Z,100743.59
2023-04-16T00:26:31.884Z,100743.66
2023-04-16T00:28:58.646Z,100751.81
2023-04-16T00:31:30.064Z,100746.63
2023-04-16T00:33:57.508Z,100746.22
2023-04-16T00:36:25.781Z,100750.63
2023-04-16T00:38:52.696Z,100747.34
2023-04-16T00:41:19.816Z,100749.06
2023-04-16T00:43:46.593Z,100739.09
2023-04-16T00:46:13.774Z,100745.16
2023-04-16T00:48:41.759Z,100759.00
2023-04-16T00:51:09.937Z,100756.75
2023-04-16T00:53:37.494Z,100748.31
2023-04-16T00:56:07.101Z,100746.94
2023-04-16T00:58:35.660Z,100746.16
2023-04-16T01:01:02.797Z,100743.53
2023-04-16T01:03:41.194Z,100754.56
2023-04-16T01:06:08.531Z,100758.44
2023-04-16T01:08:35.705Z,100761.88
2023-04-16T01:11:03.392Z,100757.00
2023-04-16T01:13:30.723Z,100757.00
2023-04-16T01:15:57.588Z,100755.28
2023-04-16T01:18:26.279Z,100762.03
2023-04-16T01:20:53.104Z,100761.94
2023-04-16T01:23:20.663Z,100765.44
2023-04-16T01:25:47.572Z,100754.56
2023-04-16T01:28:14.576Z,100759.03
2023-04-16T01:30:41.732Z,100754.56
2023-04-16T01:33:18.512Z,100757.03
2023-04-16T01:35:45.405Z,100762.88
2023-04-16T01:38:15.438Z,100762.25
2023-04-16T01:40:42.300Z,100763.97
2023-04-16T01:43:09.139Z,100769.41
2023-04-16T01:45:36.334Z,100769.25
2023-04-16T01:48:04.268Z,100768.25
2023-04-16T01:50:31.998Z,100758.94
2023-04-16T01:52:58.787Z,100754.75
2023-04-16T01:55:25.729Z,100771.69
2023-04-16T01:57:52.610Z,100771.72
2023-04-16T02:00:20.840Z,100776.81
2023-04-16T02:02:49.457Z,100779.25
2023-04-16T02:05:24.100Z,100781.03
2023-04-16T02:07:50.907Z,100782.03
2023-04-16T02:10:17.596Z,100788.03
2023-04-16T02:12:45.148Z,100785.28
2023-04-16T02:15:13.362Z,100784.56
2023-04-16T02:17:40.354Z,100787.22
2023-04-16T02:20:10.918Z,100788.03
2023-04-16T02:22:44.161Z,100785.97
2023-04-16T02:25:14.371Z,100786.97
2023-04-16T02:27:42.077Z,100795.44
2023-04-16T02:30:24.384Z,100801.47
2023-04-16T02:32:52.181Z,100809.22
2023-04-16T02:35:20.023Z,100804.09
2023-04-16T02:37:46.952Z,100807.19
2023-04-16T02:40:13.887Z,100804.09
2023-04-16T02:42:40.834Z,100788.09
2023-04-16T02:45:08.856Z,100801.19
2023-04-16T02:47:35.676Z,100797.91
2023-04-16T02:50:02.919Z,100791.94
2023-04-16T02:52:29.850Z,100797.28
2023-04-16T02:54:56.654Z,100797.84
2023-04-16T02:57:23.411Z,100800.38
2023-04-16T02:59:50.281Z,100805.72
2023-04-16T03:02:17.253Z,100811.00
2023-04-16T03:04:44.191Z,100811.84
2023-04-16T03:07:12.554Z,100810.22
2023-04-16T03:09:39.803Z,100816.38
2023-04-16T03:12:06.664Z,100814.03
2023-04-16T03:14:33.381Z,100816.44
2023-04-16T03:17:00.240Z,100817.28
2023-04-16T03:19:26.970Z,100818.41
2023-04-16T03:21:54.033Z,100836.81
2023-04-16T03:24:20.752Z,100826.69
2023-04-16T03:26:49.068Z,100833.41
2023-04-16T03:29:16.192Z,100843.72
2023-04-16T03:31:43.301Z,100838.91
2023-04-16T03:34:10.802Z,100839.03
2023-04-16T03:36:39.856Z,100829.72
2023-04-16T03:39:06.606Z,100839.28
2023-04-16T03:41:33.414Z,100838.53
2023-04-16T03:44:00.597Z,100834.38
2023-04-16T03:46:27.533Z,100843.56
2023-04-16T03:48:54.604Z,100846.53
2023-04-16T03:51:26.573Z,100845.69
2023-04-16T03:53:53.539Z,100854.69
2023-04-16T03:56:20.870Z,100851.47
2023-04-16T03:58:47.602Z,100846.81
2023-04-16T04:01:14.326Z,100846.13
2023-04-16T04:03:41.423Z,100868.38
2023-04-16T04:06:09.083Z,100876.59
2023-04-16T04:08:36.130Z,100870.66
2023-04-16T04:11:04.761Z,100873.78
2023-04-16T04:13:32.949Z,100874.13
2023-04-16T04:15:59.792Z,100862.63
2023-04-16T04:18:27.542Z,100864.50
2023-04-16T04:20:54.292Z,100877.25
2023-04-16T04:23:24.634Z,100889.09
2023-04-16T04:25:51.507Z,100890.78
2023-04-16T04:28:18.474Z,100893.94
2023-04-16T04:30:45.306Z,100891.34
2023-04-16T04:33:12.818Z,100886.91
2023-04-16T04:35:39.701Z,100897.00
2023-04-16T04:38:08.307Z,100902.69
2023-04-16T04:40:35.192Z,100904.00
2023-04-16T04:43:03.032Z,100904.75
2023-04-16T04:45:31.807Z,100907.19
2023-04-16T04:47:59.150Z,100917.13
2023-04-16T04:50:26.062Z,100927.03
2023-04-16T04:52:52.974Z,100932.06
2023-04-16T04:55:19.714Z,100925.59
2023-04-16T04:57:46.630Z,100926.97
2023-04-16T05:00:13.778Z,100938.31
2023-04-16T05:02:51.181Z,100940.47
2023-04-16T05:05:18.065Z,100943.25
2023-04-16T05:07:44.753Z,100938.31
2023-04-16T05:10:11.519Z,100941.38
2023-04-16T05:12:38.260Z,100941.63
2023-04-16T05:15:05.364Z,100946.53
2023-04-16T05:17:32.163Z,100944.19
2023-04-16T05:19:58.966Z,100944.25
2023-04-16T05:22:25.655Z,100947.84
2023-04-16T05:24:52.495Z,100967.44
2023-04-16T05:27:19.172Z,100968.34
2023-04-16T05:29:45.951Z,100968.00
2023-04-16T05:32:12.732Z,100967.44
2023-04-16T05:34:39.438Z,100974.53
2023-04-16T05:37:08.717Z,100974.63
2023-04-16T05:39:35.533Z,100976.44
2023-04-16T05:42:02.349Z,100983.41
2023-04-16T05:44:29.092Z,100980.44
2023-04-16T05:46:55.819Z,100985.66
2023-04-16T05:49:22.577Z,100978.28
2023-04-16T05:51:50.897Z,100977.97
2023-04-16T05:54:17.859Z,100980.94
2023-04-16T05:56:44.585Z,100981.91
2023-04-16T05:59:11.725Z,101000.38
2023-04-16T06:01:41.440Z,100998.19
2023-04-16T06:04:08.266Z,100999.50
2023-04-16T06:06:37.452Z,101002.44
2023-04-16T06:09:04.415Z,101002.78
2023-04-16T06:11:31.233Z,101009.06
2023-04-16T06:13:58.310Z,101007.72
2023-04-16T06:16:26.300Z,101001.00
2023-04-16T06:18:53.200Z,101002.97
2023-04-16T06:21:20.132Z,101004.06
2023-04-16T06:23:47.034Z,101008.44
2023-04-16T06:26:13.746Z,101004.34
2023-04-16T06:28:40.505Z,100994.25
2023-04-16T06:31:07.271Z,100998.75
2023-04-16T06:33:34.104Z,101010.97
2023-04-16T06:36:00.975Z,101007.06
2023-04-16T06:38:27.765Z,101005.88
2023-04-16T06:40:54.499Z,100995.88
2023-04-16T06:43:21.728Z,100996.72
2023-04-16T06:45:48.499Z,100990.09
2023-04-16T06:48:15.633Z,100996.28
2023-04-16T06:50:42.590Z,100997.22
2023-04-16T06:53:09.444Z,101001.13
2023-04-16T06:55:36.246Z,101009.13
2023-04-16T06:58:03.664Z,101001.53
2023-04-16T07:00:30.499Z,100998.09
2023-04-16T07:03:01.513Z,101014.41
2023-04-16T07:05:28.511Z,101003.38
2023-04-16T07:07:57.537Z,101007.84
2023-04-16T07:10:24.395Z,101008.06
2023-04-16T07:12:51.330Z,101001.34
2023-04-16T07:15:18.260Z,101005.25
2023-04-16T07:17:45.022Z,101005.38
2023-04-16T07:20:12.162Z,101011.69
2023-04-16T07:22:38.984Z,101013.63
2023-04-16T07:25:06.353Z,101012.03
2023-04-16T07:27:33.141Z,101012.94
2023-04-16T07:29:59.903Z,101008.13
2023-04-16T07:32:26.766Z,101014.31
2023-04-16T07:34:53.709Z,100998.03
2023-04-16T07:37:20.486Z,101010.19
2023-04-16T07:39:47.489Z,101020.50
2023-04-16T07:42:14.410Z,101016.25
2023-04-16T07:44:41.300Z,101021.53
2023-04-16T07:47:08.035Z,101014.75
2023-04-16T07:49:34.794Z,101016.72
2023-04-16T07:52:02.269Z,101008.50
2023-04-16T07:54:29.302Z,101017.41
2023-04-16T07:56:56.085Z,101008.16
2023-04-16T07:59:24.272Z,101015.94
2023-04-16T08:01:53.348Z,101012.50
2023-04-16T08:04:25.669Z,101021.09
2023-04-16T08:06:53.501Z,101022.81
2023-04-16T08:09:22.058Z,101021.19
2023-04-16T08:11:49.980Z,101019.53
2023-04-16T08:14:17.524Z,101029.03
2023-04-16T08:16:44.507Z,101027.28
2023-04-16T08:19:11.605Z,101027.22
2023-04-16T08:21:38.948Z,101036.63
2023-04-16T08:24:05.907Z,101032.41
2023-04-16T08:26:32.677Z,101050.44
2023-04-16T08:28:59.345Z,101046.06
2023-04-16T08:31:26.368Z,101043.44
2023-04-16T08:33:53.096Z,101048.59
2023-04-16T08:36:19.984Z,101052.13
2023-04-16T08:38:49.178Z,101049.63
2023-04-16T08:41:16.228Z,101059.97
2023-04-16T08:43:45.510Z,101063.47
2023-04-16T08:46:12.757Z,101059.06
2023-04-16T08:48:43.365Z,101059.00
2023-04-16T08:51:11.197Z,101067.56
2023-04-16T08:53:49.452Z,101066.69
2023-04-16T08:56:23.683Z,101068.53
2023-04-16T08:58:51.802Z,101067.63
2023-04-16T09:01:19.428Z,101071.13
2023-04-16T09:03:49.861Z,101070.53
2023-04-16T09:06:17.539Z,101076.53
2023-04-16T09:08:46.375Z,101076.38
2023-04-16T09:11:19.815Z,101080.59
2023-04-16T09:13:47.442Z,101081.38
2023-04-16T09:16:15.480Z,101090.72
2023-04-16T09:18:42.382Z,101089.81
2023-04-16T09:21:12.992Z,101088.91
2023-04-16T09:23:41.132Z,101082.16
2023-04-16T09:26:07.977Z,101088.38
2023-04-16T09:28:45.708Z,101092.59
2023-04-16T09:31:17.340Z,101088.19
2023-04-16T09:34:01.220Z,101097.63
2023-04-16T09:36:28.376Z,101090.72
2023-04-16T09:38:57.602Z,101085.59
2023-04-16T09:41:27.671Z,101089.13
2023-04-16T09:44:04.387Z,101100.53
2023-04-16T09:46:32.177Z,101088.84
2023-04-16T09:49:04.759Z,101090.00
2023-04-16T09:51:37.877Z,101084.88
2023-04-16T09:54:06.197Z,101075.50
2023-04-16T09:56:32.922Z,101081.69
2023-04-16T09:59:02.652Z,101089.47
2023-04-16T10:01:31.083Z,101075.63
2023-04-16T10:04:00.029Z,101079.88
2023-04-16T10:06:29.756Z,101082.38
2023-04-16T10:08:57.215Z,101084.06
2023-04-16T10:11:24.323Z,101084.91
2023-04-16T10:13:51.635Z,101084.06
2023-04-16T10:16:18.663Z,101079.84
2023-04-16T10:18:46.977Z,101078.28
2023-04-16T10:21:15.447Z,101081.88
2023-04-16T10:23:43.991Z,101079.47
2023-04-16T10:26:10.868Z,101059.81
2023-04-16T10:28:37.814Z,101079.69
2023-04-16T10:31:08.443Z,101071.16
2023-04-16T10:33:39.454Z,101067.78
2023-04-16T10:36:10.877Z,101066.06
2023-04-16T10:39:00.902Z,101072.13
2023-04-16T10:41:27.863Z,101072.16
2023-04-16T10:44:11.779Z,101065.28
2023-04-16T10:46:39.777Z,101059.25
2023-04-16T10:49:15.172Z,101054.94
2023-04-16T10:51:42.611Z,101064.44
2023-04-16T10:54:10.194Z,101066.16
2023-04-16T10:56:37.789Z,101052.34
2023-04-16T10:59:06.409Z,101061.81
2023-04-16T11:01:38.372Z,101055.78
2023-04-16T11:04:20.926Z,101059.22
2023-04-16T11:07:08.175Z,101048.84
2023-04-16T11:09:47.226Z,101048.03
2023-04-16T11:12:16.378Z,101038.50
2023-04-16T11:14:47.127Z,101035.06
2023-04-16T11:17:14.035Z,101037.63
2023-04-16T11:19:44.045Z,101037.63
2023-04-16T11:22:17.411Z,101037.59
2023-04-16T11:24:45.770Z,101034.09
2023-04-16T11:27:16.155Z,101032.38
2023-04-16T11:29:44.559Z,101030.66
2023-04-16T11:32:22.000Z,101034.09
2023-04-16T11:34:49.001Z,101024.56
2023-04-16T11:37:16.248Z,101035.81
2023-04-16T11:39:51.188Z,101028.84
2023-04-16T11:42:25.176Z,101015.84
2023-04-16T11:44:54.323Z,101024.47
2023-04-16T11:47:21.510Z,101015.78
2023-04-16T11:49:48.526Z,101019.19
2023-04-16T11:52:29.261Z,101007.94
2023-04-16T11:54:57.147Z,101012.22
2023-04-16T11:57:28.215Z,101010.50
2023-04-16T12:00:01.378Z,101012.22
2023-04-16T12:02:45.200Z,101004.34
2023-04-16T12:05:39.134Z,101003.50
2023-04-16T12:08:11.017Z,101001.75
2023-04-16T12:10:53.580Z,100995.66
2023-04-16T12:13:20.447Z,101000.75
2023-04-16T12:15:56.083Z,101005.97
2023-04-16T12:18:28.995Z,101003.31
2023-04-16T12:20:56.180Z,101012.84
2023-04-16T12:23:31.984Z,101014.59
2023-04-16T12:26:03.139Z,101012.09
2023-04-16T12:28:32.575Z,101016.38
2023-04-16T12:30:59.849Z,101004.25
2023-04-16T12:33:26.755Z,100999.13
2023-04-16T12:35:53.589Z,101011.28
2023-04-16T12:38:22.185Z,101012.16
2023-04-16T12:40:50.823Z,101006.09
2023-04-16T12:43:21.525Z,101004.38
2023-04-16T12:45:49.482Z,101006.13
2023-04-16T12:48:16.246Z,100996.66
2023-04-16T12:50:44.372Z,101000.94
2023-04-16T12:53:11.988Z,100997.47
2023-04-16T12:55:38.811Z,101000.97
2023-04-16T12:58:10.556Z,100999.28
2023-04-16T13:00:38.737Z,100994.16
2023-04-16T13:03:05.683Z,100993.34
2023-04-16T13:05:32.917Z,101000.31
2023-04-16T13:07:59.649Z,100989.13
2023-04-16T13:10:28.002Z,100996.81
2023-04-16T13:12:54.732Z,100989.00
2023-04-16T13:15:21.707Z,100991.63
2023-04-16T13:17:48.670Z,100997.69
2023-04-16T13:20:15.554Z,100992.50
2023-04-16T13:22:42.342Z,100996.75
2023-04-16T13:25:10.432Z,100999.34
2023-04-16T13:27:37.163Z,100995.03
2023-04-16T13:30:04.149Z,100996.75
2023-04-16T13:32:31.501Z,100974.25
2023-04-16T13:34:58.266Z,100995.00
2023-04-16T13:37:25.094Z,100992.47
2023-04-16T13:39:51.799Z,100995.91
2023-04-16T13:42:18.626Z,100995.91
2023-04-16T13:44:48.891Z,100995.09
2023-04-16T13:47:16.145Z,100993.38
2023-04-16T13:49:42.839Z,100998.53
2023-04-16T13:52:09.657Z,101001.22
2023-04-16T13:54:36.386Z,101002.16
2023-04-16T13:57:03.334Z,101004.72
2023-04-16T13:59:30.362Z,101009.06
2023-04-16T14:01:57.781Z,101002.94
2023-04-16T14:04:24.781Z,101000.34
2023-04-16T14:06:51.873Z,100998.66
2023-04-16T14:09:18.685Z,101002.97
2023-04-16T14:11:45.573Z,100993.38
2023-04-16T14:14:12.398Z,100994.16
2023-04-16T14:16:39.263Z,100991.50
2023-04-16T14:19:06.036Z,100982.88
2023-04-16T14:21:32.833Z,100992.41
2023-04-16T14:23:59.628Z,100994.22
2023-04-16T14:26:26.388Z,100985.53
2023-04-16T14:28:53.164Z,100987.25
2023-04-16T14:31:20.623Z,100996.75
2023-04-16T14:33:47.425Z,100985.50
2023-04-16T14:36:14.436Z,100981.09
2023-04-16T14:38:43.271Z,100987.91
2023-04-16T14:41:14.417Z,100994.75
2023-04-16T14:43:41.528Z,100996.50
2023-04-16T14:46:08.497Z,100991.25
2023-04-16T14:48:35.517Z,100991.25
2023-04-16T14:51:02.318Z,100992.16
2023-04-16T14:53:29.163Z,100983.50
2023-04-16T14:55:59.123Z,100977.53
2023-04-16T14:58:26.354Z,100984.38
2023-04-16T15:00:53.512Z,100979.19
2023-04-16T15:03:20.776Z,100976.53
2023-04-16T15:05:54.762Z,100974.75
2023-04-16T15:08:22.555Z,100974.72
2023-04-16T15:10:49.308Z,100975.66
2023-04-16T15:13:16.139Z,100981.88
2023-04-16T15:15:43.536Z,100978.53
2023-04-16T15:18:10.517Z,100979.38
2023-04-16T15:20:37.281Z,100983.63
2023-04-16T15:23:04.169Z,100974.97
2023-04-16T15:25:32.089Z,100976.72
2023-04-16T15:27:59.442Z,100975.00
2023-04-16T15:30:26.208Z,100972.47
2023-04-16T15:32:55.069Z,100977.69
2023-04-16T15:35:22.008Z,100983.78
2023-04-16T15:37:48.989Z,100985.50
2023-04-16T15:40:18.738Z,100994.09
2023-04-16T15:42:45.730Z,100982.09
2023-04-16T15:45:12.571Z,100989.03
2023-04-16T15:47:41.688Z,100990.75
2023-04-16T15:50:09.014Z,100997.66
2023-04-16T15:52:55.714Z,100995.94
2023-04-16T15:55:22.588Z,100998.56
2023-04-16T15:57:49.362Z,101007.31
2023-04-16T16:00:19.301Z,101007.34
2023-04-16T16:02:47.238Z,101017.72
2023-04-16T16:05:15.182Z,101016.03
2023-04-16T16:07:42.786Z,101021.22
2023-04-16T16:10:10.814Z,101021.25
2023-04-16T16:12:37.738Z,101023.81
2023-04-16T16:15:06.521Z,101035.88
2023-04-16T16:17:33.822Z,101035.03
2023-04-16T16:20:01.214Z,101036.78
2023-04-16T16:22:28.632Z,101035.97
2023-04-16T16:24:56.517Z,101038.56
2023-04-16T16:27:23.258Z,101035.97
2023-04-16T16:29:50.267Z,101042.00
2023-04-16T16:32:17.298Z,101042.84
2023-04-16T16:34:44.136Z,101043.72
2023-04-16T16:37:11.095Z,101047.16
2023-04-16T16:39:38.924Z,101036.81
2023-04-16T16:42:06.289Z,101042.84
2023-04-16T16:44:33.022Z,101042.03
2023-04-16T16:46:59.938Z,101049.78
2023-04-16T16:49:26.903Z,101048.06
2023-04-16T16:51:53.732Z,101054.09
2023-04-16T16:54:20.937Z,101053.19
2023-04-16T16:56:47.728Z,101060.94
2023-04-16T16:59:14.594Z,101071.28
2023-04-16T17:01:41.971Z,101068.75
2023-04-16T17:04:08.815Z,101055.81
2023-04-16T17:06:36.091Z,101057.53
2023-04-16T17:09:03.993Z,101061.00
2023-04-16T17:11:31.297Z,101063.59
2023-04-16T17:13:58.102Z,101069.59
2023-04-16T17:16:26.105Z,101070.41
2023-04-16T17:18:53.022Z,101071.28
2023-04-16T17:21:19.903Z,101079.91
2023-04-16T17:23:46.740Z,101078.16
2023-04-16T17:26:13.852Z,101065.19
2023-04-16T17:28:40.896Z,101085.00
2023-04-16T17:31:08.671Z,101092.72
2023-04-16T17:33:35.974Z,101088.41
2023-04-16T17:36:03.010Z,101091.81
2023-04-16T17:38:29.907Z,101100.44
2023-04-16T17:40:57.748Z,101099.53
2023-04-16T17:43:24.668Z,101108.94
2023-04-16T17:45:51.532Z,101103.72
2023-04-16T17:48:18.381Z,101100.31
2023-04-16T17:50:45.239Z,101108.84
2023-04-16T17:53:12.396Z,101115.69
2023-04-16T17:55:39.587Z,101121.69
2023-04-16T17:58:06.354Z,101121.69
2023-04-16T18:00:33.466Z,101133.75
2023-04-16T18:03:00.722Z,101138.91
2023-04-16T18:05:27.701Z,101150.03
2023-04-16T18:07:55.483Z,101140.53
2023-04-16T18:10:22.304Z,101149.94
2023-04-16T18:12:49.240Z,101149.00
2023-04-16T18:15:16.327Z,101156.63
2023-04-16T18:17:43.040Z,101168.59
2023-04-16T18:20:10.828Z,101164.22
2023-04-16T18:22:37.627Z,101167.63
2023-04-16T18:25:05.416Z,101171.03
2023-04-16T18:27:32.224Z,101177.00
2023-04-16T18:29:59.478Z,101181.25
2023-04-16T18:32:30.345Z,101184.69
2023-04-16T18:34:57.816Z,101183.78
2023-04-16T18:37:24.657Z,101191.50
2023-04-16T18:39:51.463Z,101183.66
2023-04-16T18:42:18.291Z,101192.22
2023-04-16T18:44:51.744Z,101199.03
2023-04-16T18:47:19.004Z,101199.84
2023-04-16T18:49:45.907Z,101201.53
2023-04-16T18:52:13.159Z,101209.22
2023-04-16T18:54:41.993Z,101201.47
2023-04-16T18:57:08.730Z,101194.47
2023-04-16T18:59:35.777Z,101197.03
2023-04-16T19:02:02.658Z,101213.28
2023-04-16T19:04:29.474Z,101208.03
2023-04-16T19:06:56.700Z,101213.72
2023-04-16T19:09:25.413Z,101217.03
2023-04-16T19:11:52.225Z,101223.84
2023-04-16T19:14:18.987Z,101224.66
2023-04-16T19:16:45.903Z,101242.44
2023-04-16T19:19:12.878Z,101232.00
2023-04-16T19:21:39.838Z,101229.47
2023-04-16T19:24:07.191Z,101230.03
2023-04-16T19:26:34.225Z,101230.44
2023-04-16T19:29:01.123Z,101231.38
2023-04-16T19:31:29.636Z,101235.78
2023-04-16T19:33:56.585Z,101245.22
2023-04-16T19:36:23.489Z,101253.69
2023-04-16T19:38:50.667Z,101248.50
2023-04-16T19:41:17.910Z,101249.41
2023-04-16T19:43:44.916Z,101254.66
2023-04-16T19:46:11.981Z,101253.84
2023-04-16T19:48:38.817Z,101261.28
2023-04-16T19:51:05.814Z,101258.66
2023-04-16T19:53:32.758Z,101265.56
2023-04-16T19:56:01.906Z,101270.66
2023-04-16T19:58:28.726Z,101259.56
2023-04-16T20:00:56.513Z,101264.72
2023-04-16T20:03:23.443Z,101266.47
2023-04-16T20:05:50.492Z,101264.78
2023-04-16T20:08:17.525Z,101267.38
2023-04-16T20:10:47.355Z,101263.16
2023-04-16T20:13:16.100Z,101265.72
2023-04-16T20:15:44.911Z,101281.81
2023-04-16T20:18:12.920Z,101268.84
2023-04-16T20:20:40.385Z,101265.91
2023-04-16T20:23:07.316Z,101263.34
2023-04-16T20:25:34.367Z,101259.91
2023-04-16T20:28:01.151Z,101261.91
2023-04-16T20:30:29.187Z,101255.88
2023-04-16T20:32:56.686Z,101258.66
2023-04-16T20:35:23.734Z,101262.59
2023-04-16T20:37:50.637Z,101263.50
2023-04-16T20:40:17.536Z,101271.88
2023-04-16T20:42:46.401Z,101268.16
2023-04-16T20:45:13.469Z,101266.53
2023-04-16T20:47:40.821Z,101261.22
2023-04-16T20:50:08.298Z,101260.44
2023-04-16T20:52:36.483Z,101262.13
2023-04-16T20:55:03.700Z,101260.53
2023-04-16T20:57:32.080Z,101260.53
2023-04-16T20:59:58.984Z,101253.72
2023-04-16T21:02:28.011Z,101255.53
2023-04-16T21:04:55.337Z,101246.19
2023-04-16T21:07:22.121Z,101239.34
2023-04-16T21:09:48.846Z,101227.41
2023-04-16T21:12:15.605Z,101234.44
2023-04-16T21:14:42.612Z,101231.94
2023-04-16T21:17:09.453Z,101226.00
2023-04-16T21:19:36.234Z,101237.38
2023-04-16T21:22:03.219Z,101240.91
2023-04-16T21:24:31.980Z,101233.97
2023-04-16T21:26:58.746Z,101243.25
2023-04-16T21:29:25.511Z,101233.19
2023-04-16T21:31:52.689Z,101239.19
2023-04-16T21:34:19.690Z,101240.69
2023-04-16T21:36:46.688Z,101244.78
2023-04-16T21:39:14.230Z,101237.06
2023-04-16T21:41:41.103Z,101249.81
2023-04-16T21:44:07.766Z,101256.72
2023-04-16T21:46:34.591Z,101254.91
2023-04-16T21:49:01.358Z,101251.38
2023-04-16T21:51:30.952Z,101250.63
2023-04-16T21:53:58.083Z,101244.56
2023-04-16T21:56:25.883Z,101245.59
2023-04-16T21:58:52.657Z,101236.25
2023-04-16T22:01:19.486Z,101236.44
2023-04-16T22:03:50.753Z,101228.69
2023-04-16T22:06:17.917Z,101231.91
2023-04-16T22:08:44.622Z,101232.31
2023-04-16T22:11:11.430Z,101230.66
2023-04-16T22:13:42.063Z,101224.75
2023-04-16T22:16:11.516Z,101220.53
2023-04-16T22:18:41.238Z,101220.13
2023-04-16T22:21:09.253Z,101215.03
2023-04-16T22:23:36.149Z,101221.19
2023-04-16T22:26:04.316Z,101230.78
2023-04-16T22:28:31.480Z,101222.94
2023-04-16T22:30:58.353Z,101222.06
2023-04-16T22:33:25.125Z,101218.41
2023-04-16T22:35:52.014Z,101221.97
2023-04-16T22:38:18.906Z,101217.75
2023-04-16T22:40:48.427Z,101223.75
2023-04-16T22:43:16.162Z,101228.69
2023-04-16T22:45:43.233Z,101228.75
2023-04-16T22:48:10.151Z,101227.97
2023-04-16T22:50:36.901Z,101222.03
2023-04-16T22:53:03.716Z,101218.34
2023-04-16T22:55:30.673Z,101246.13
2023-04-16T22:57:57.494Z,101234.38
2023-04-16T23:00:27.426Z,101232.88
2023-04-16T23:02:54.173Z,101228.16
2023-04-16T23:05:21.107Z,101217.13
2023-04-16T23:07:47.845Z,101219.91
2023-04-16T23:10:14.634Z,101207.78
2023-04-16T23:12:41.590Z,101212.50
2023-04-16T23:15:09.003Z,101194.13
2023-04-16T23:17:36.115Z,101189.91
2023-04-16T23:20:05.312Z,101199.25
2023-04-16T23:22:32.160Z,101199.63
2023-04-16T23:24:58.799Z,101203.28
2023-04-16T23:27:25.576Z,101205.31
2023-04-16T23:29:52.354Z,101210.81
2023-04-16T23:32:19.290Z,101201.25
2023-04-16T23:34:46.052Z,101203.97
2023-04-16T23:37:12.855Z,101210.84
2023-04-16T23:39:39.579Z,101203.34
2023-04-16T23:42:06.489Z,101202.41
2023-04-16T23:44:33.575Z,101197.00
2023-04-16T23:47:00.573Z,101192.75
2023-04-16T23:49:27.443Z,101183.94
2023-04-16T23:51:54.255Z,101184.84
2023-04-16T23:54:21.445Z,101189.31
2023-04-16T23:56:48.688Z,101195.47
2023-04-16T23:59:18.300Z,101191.94
